UAL850 KLAX-KDEN
Flight info
| Callsign | UAL850 |
|---|---|
| Flight time | N/A |
| Altitude | 39000 |
| Route | ORCKA5 LAS J146 DICEE BUMMP SSKII4 |
| Aircraft | B77W/H-SDE1E2E3FGHIJ2J3J4J5M1RWXY/LB1D1 |
Departure
| Time | N/A |
|---|---|
| Airport | Los Angeles International Airport (KLAX) |
Arrival
| Time | 2026-05-05 19:57 |
|---|---|
| Airport | Denver International Airport (KDEN) |
| Time | Latitude | Longitude | Altitude | Speed | Heading |
|---|---|---|---|---|---|
| 2026-05-05 19:50 | 39.56547 | -104.66361 | 10591 ft | 197 kts | 0° |
| 2026-05-05 19:51 | 39.57919 | -104.66342 | 10343 ft | 196 kts | 0° |
| 2026-05-05 19:51 | 39.59272 | -104.66328 | 10086 ft | 188 kts | 1° |
| 2026-05-05 19:51 | 39.60558 | -104.66317 | 9847 ft | 183 kts | 1° |
| 2026-05-05 19:51 | 39.61812 | -104.66305 | 9614 ft | 177 kts | 1° |
| 2026-05-05 19:52 | 39.63029 | -104.66292 | 9385 ft | 175 kts | 1° |
| 2026-05-05 19:52 | 39.64228 | -104.66278 | 9163 ft | 172 kts | 1° |
| 2026-05-05 19:52 | 39.65429 | -104.66265 | 8933 ft | 171 kts | 2° |
| 2026-05-05 19:52 | 39.66619 | -104.66251 | 8707 ft | 170 kts | 2° |
| 2026-05-05 19:53 | 39.67796 | -104.66237 | 8484 ft | 168 kts | 2° |
| 2026-05-05 19:53 | 39.68969 | -104.66222 | 8250 ft | 167 kts | 2° |
| 2026-05-05 19:53 | 39.70122 | -104.66209 | 8008 ft | 164 kts | 2° |
| 2026-05-05 19:53 | 39.71257 | -104.66194 | 7783 ft | 162 kts | 2° |
| 2026-05-05 19:54 | 39.72400 | -104.66180 | 7556 ft | 160 kts | 2° |
| 2026-05-05 19:54 | 39.73550 | -104.66168 | 7332 ft | 159 kts | 2° |
| 2026-05-05 19:54 | 39.74672 | -104.66154 | 7108 ft | 158 kts | 2° |
| 2026-05-05 19:54 | 39.75830 | -104.66140 | 6876 ft | 157 kts | 2° |
| 2026-05-05 19:55 | 39.76916 | -104.66127 | 6658 ft | 155 kts | 2° |
| 2026-05-05 19:55 | 39.77999 | -104.66113 | 6439 ft | 154 kts | 2° |
| 2026-05-05 19:55 | 39.79048 | -104.66101 | 6229 ft | 149 kts | 3° |
| 2026-05-05 19:55 | 39.80069 | -104.66088 | 6024 ft | 147 kts | 3° |
| 2026-05-05 19:56 | 39.81097 | -104.66077 | 5824 ft | 146 kts | 2° |
| 2026-05-05 19:56 | 39.82094 | -104.66074 | 5572 ft | 139 kts | 3° |
| 2026-05-05 19:56 | 39.83157 | -104.66052 | 5436 ft | 134 kts | 1° |
| 2026-05-05 19:56 | 39.83995 | -104.66040 | 5421 ft | 75 kts | 0° |
| 2026-05-05 19:57 | 39.84372 | -104.66035 | 5409 ft | 35 kts | 1° |
| 2026-05-05 19:57 | 39.84554 | -104.66034 | 5405 ft | 35 kts | 360° |
| 2026-05-05 19:57 | 39.84864 | -104.66126 | 5402 ft | 17 kts | 332° |
| 2026-05-05 19:57 | 39.84987 | -104.66213 | 5401 ft | 20 kts | 340° |
| 2026-05-05 19:58 | 39.85132 | -104.66238 | 5400 ft | 17 kts | 352° |
| 2026-05-05 19:58 | 39.85269 | -104.66240 | 5399 ft | 22 kts | 1° |
| 2026-05-05 19:58 | 39.85447 | -104.66235 | 5398 ft | 26 kts | 1° |
| 2026-05-05 19:58 | 39.85596 | -104.66238 | 5396 ft | 15 kts | 359° |
| 2026-05-05 19:59 | 39.85677 | -104.66299 | 5394 ft | 14 kts | 288° |
| 2026-05-05 19:59 | 39.85678 | -104.66472 | 5387 ft | 22 kts | 263° |
| 2026-05-05 19:59 | 39.85660 | -104.66640 | 5386 ft | 16 kts | 270° |
| 2026-05-05 19:59 | 39.85659 | -104.66793 | 5386 ft | 15 kts | 270° |
| 2026-05-05 20:00 | 39.85661 | -104.66940 | 5386 ft | 15 kts | 270° |
| 2026-05-05 20:00 | 39.85662 | -104.67071 | 5386 ft | 13 kts | 270° |
| 2026-05-05 20:00 | 39.85663 | -104.67191 | 5386 ft | 8 kts | 271° |
| 2026-05-05 20:00 | 39.85674 | -104.67258 | 5386 ft | 7 kts | 306° |
| 2026-05-05 20:01 | 39.85713 | -104.67282 | 5386 ft | 4 kts | 357° |
| 2026-05-05 20:01 | 39.85748 | -104.67283 | 5386 ft | 4 kts | 360° |
| 2026-05-05 20:01 | 39.85776 | -104.67283 | 5386 ft | 3 kts | 359° |
| 2026-05-05 20:01 | 39.85797 | -104.67283 | 5386 ft | 1 kts | 359° |